Summerfield, Florida
Current Conditions -  °F | °C
As of 6:53 PM on Friday 28 Nov 2014 (Local Time) from KLEE Reporting Station
Clear Clear  
Wind Chill: 50°   Ceiling: Unl
Heat Index: 50°   Visibility: 10mi
Dew Point: 42°   Wind: 7mph
Humidity: 74%   Direction: 30°NNE
Pressure: 30.3"   Gusts: NA
Location:  29.01°N, 82.03°W
Report Text: KLEE 282353Z AUTO 03006KT 10SM CLR 10/06 A3030 RMK AO2 SLP260 T01000056 10156 20100 53008
Loading
Personal Weather Stations






























Interactive Weather Map New forecast layout! Learn more

10-Day Weather Forecast

Advertisements
Track Severe Weather on mobile